createdAt,value
2016-12-27T00:00:21.467Z,0
2016-12-27T00:01:02.031Z,0
2016-12-27T00:01:42.609Z,0
2016-12-27T00:02:23.181Z,0
2016-12-27T00:03:03.761Z,0
2016-12-27T00:03:44.331Z,0
2016-12-27T00:04:24.905Z,0
2016-12-27T00:05:05.482Z,0
2016-12-27T00:05:46.065Z,0
2016-12-27T00:06:26.651Z,0
2016-12-27T00:07:07.204Z,0
2016-12-27T00:07:47.783Z,0
2016-12-27T00:08:28.355Z,0
2016-12-27T00:09:08.932Z,0
2016-12-27T00:09:49.507Z,0
2016-12-27T00:10:30.079Z,0
2016-12-27T00:11:10.655Z,0
2016-12-27T00:11:51.230Z,0
2016-12-27T00:12:31.790Z,0
2016-12-27T00:13:12.361Z,0
2016-12-27T00:13:52.937Z,0
2016-12-27T00:14:33.513Z,0
2016-12-27T00:15:14.085Z,0
2016-12-27T00:15:54.650Z,0
2016-12-27T00:16:35.233Z,0
2016-12-27T00:17:15.814Z,0
2016-12-27T00:17:56.390Z,0
2016-12-27T00:18:36.965Z,0
2016-12-27T00:19:17.530Z,0
2016-12-27T00:19:58.108Z,0
2016-12-27T00:20:38.687Z,0
2016-12-27T00:21:19.256Z,0
2016-12-27T00:21:59.828Z,0
2016-12-27T00:22:40.406Z,0
2016-12-27T00:23:20.983Z,0
2016-12-27T00:24:01.569Z,0
2016-12-27T00:24:42.137Z,0
2016-12-27T00:25:22.715Z,0
2016-12-27T00:26:03.314Z,0
2016-12-27T00:26:43.901Z,0
2016-12-27T00:27:24.470Z,0
2016-12-27T00:28:05.057Z,0
2016-12-27T00:28:45.634Z,0
2016-12-27T00:29:26.208Z,0
2016-12-27T00:30:06.791Z,0
2016-12-27T00:30:47.372Z,0
2016-12-27T00:31:27.948Z,0
2016-12-27T00:32:08.519Z,0
2016-12-27T00:32:49.097Z,0
2016-12-27T00:33:29.663Z,0
2016-12-27T00:34:10.244Z,0
2016-12-27T00:34:50.813Z,0
2016-12-27T00:35:31.391Z,0
2016-12-27T00:36:11.971Z,0
2016-12-27T00:36:52.551Z,0
2016-12-27T00:37:33.130Z,0
2016-12-27T00:38:13.709Z,0
2016-12-27T00:38:54.286Z,0
2016-12-27T00:39:34.857Z,0
2016-12-27T00:40:15.419Z,0
2016-12-27T00:40:55.999Z,0
2016-12-27T00:41:36.583Z,0
2016-12-27T00:42:17.161Z,0
2016-12-27T00:42:57.739Z,0
2016-12-27T00:43:38.313Z,0
2016-12-27T00:44:18.885Z,0
2016-12-27T00:44:59.463Z,0
2016-12-27T00:45:40.032Z,0
2016-12-27T00:46:20.608Z,0
2016-12-27T00:47:01.184Z,0
2016-12-27T00:47:41.756Z,0
2016-12-27T00:48:22.334Z,0
2016-12-27T00:49:02.929Z,0
2016-12-27T00:49:43.500Z,0
2016-12-27T00:50:24.079Z,0
2016-12-27T00:51:04.652Z,0
2016-12-27T00:51:45.230Z,0
2016-12-27T00:52:25.800Z,0
2016-12-27T00:53:06.363Z,0
2016-12-27T00:53:46.946Z,0
2016-12-27T00:54:27.525Z,0
2016-12-27T00:55:08.103Z,0
2016-12-27T00:55:48.689Z,0
2016-12-27T00:56:29.256Z,0
2016-12-27T00:57:09.829Z,0
2016-12-27T00:57:50.402Z,0
2016-12-27T00:58:30.974Z,0
2016-12-27T00:59:11.550Z,0
2016-12-27T00:59:52.120Z,0
2016-12-27T01:00:32.708Z,0
2016-12-27T01:01:13.278Z,0
2016-12-27T01:01:53.855Z,0
2016-12-27T01:02:34.427Z,0
2016-12-27T01:03:15.013Z,0
2016-12-27T01:03:55.581Z,0
2016-12-27T01:04:36.213Z,0
2016-12-27T01:05:16.725Z,0
2016-12-27T01:05:57.319Z,0
2016-12-27T01:06:37.998Z,0
2016-12-27T01:07:18.565Z,0
2016-12-27T01:07:59.155Z,0
2016-12-27T01:08:39.726Z,0
2016-12-27T01:09:20.303Z,0
2016-12-27T01:10:00.927Z,0
2016-12-27T01:10:41.477Z,0
2016-12-27T01:11:22.050Z,0
2016-12-27T01:12:02.629Z,0
2016-12-27T01:12:43.207Z,0
2016-12-27T01:13:23.778Z,0
2016-12-27T01:14:04.365Z,0
2016-12-27T01:14:44.926Z,0
2016-12-27T01:15:25.509Z,0
2016-12-27T01:16:06.095Z,0
2016-12-27T01:16:46.654Z,0
2016-12-27T01:17:27.231Z,0
2016-12-27T01:18:07.815Z,0
2016-12-27T01:18:48.380Z,0
2016-12-27T01:19:28.945Z,0
2016-12-27T01:20:09.531Z,0
2016-12-27T01:20:50.108Z,0
2016-12-27T01:21:30.708Z,0
2016-12-27T01:22:11.264Z,0
2016-12-27T01:22:51.852Z,0
2016-12-27T01:23:32.433Z,0
2016-12-27T01:24:13.005Z,0
2016-12-27T01:24:53.583Z,0
2016-12-27T01:25:34.159Z,0
2016-12-27T01:26:14.728Z,0
2016-12-27T01:26:55.299Z,0
2016-12-27T01:27:35.870Z,0
2016-12-27T01:28:16.444Z,0
2016-12-27T01:28:57.030Z,0
2016-12-27T01:29:37.604Z,0
2016-12-27T01:30:18.160Z,0
2016-12-27T01:30:58.745Z,0
2016-12-27T01:31:39.327Z,0
2016-12-27T01:32:19.889Z,0
2016-12-27T01:33:00.459Z,0
2016-12-27T01:33:41.035Z,0
2016-12-27T01:34:21.619Z,0
2016-12-27T01:35:02.188Z,0
2016-12-27T01:35:42.765Z,0
2016-12-27T01:36:23.343Z,0
2016-12-27T01:37:03.926Z,0
2016-12-27T01:37:44.503Z,0
2016-12-27T01:38:25.066Z,0
2016-12-27T01:39:05.633Z,0
2016-12-27T01:39:46.211Z,0
2016-12-27T01:40:26.781Z,0
2016-12-27T01:41:07.343Z,0
2016-12-27T01:41:47.922Z,0
2016-12-27T01:42:28.488Z,0
2016-12-27T01:43:09.064Z,0
2016-12-27T01:43:49.640Z,0
2016-12-27T01:44:30.206Z,0
2016-12-27T01:45:10.775Z,0
2016-12-27T01:45:51.348Z,0
2016-12-27T01:46:31.920Z,0
2016-12-27T01:47:12.498Z,0
2016-12-27T01:47:53.067Z,0
2016-12-27T01:48:33.641Z,0
2016-12-27T01:49:14.221Z,0
2016-12-27T01:49:54.799Z,0
2016-12-27T01:50:35.381Z,0
2016-12-27T01:51:15.953Z,0
2016-12-27T01:51:56.543Z,0
2016-12-27T01:52:37.115Z,0
2016-12-27T01:53:17.692Z,0
2016-12-27T01:53:58.271Z,0
2016-12-27T01:54:38.840Z,0
2016-12-27T01:55:19.418Z,0
2016-12-27T01:55:59.989Z,0
2016-12-27T01:56:40.569Z,0
2016-12-27T01:57:21.135Z,0
2016-12-27T01:58:01.721Z,0
2016-12-27T01:58:42.296Z,0
2016-12-27T01:59:22.870Z,0
2016-12-27T02:00:03.433Z,0
2016-12-27T02:00:44.008Z,0
2016-12-27T02:01:24.581Z,0
2016-12-27T02:02:05.170Z,0
2016-12-27T02:02:45.747Z,0
2016-12-27T02:03:26.325Z,0
2016-12-27T02:04:06.904Z,0
2016-12-27T02:04:47.480Z,0
2016-12-27T02:05:28.049Z,0
2016-12-27T02:06:08.624Z,0
2016-12-27T02:06:49.210Z,0
2016-12-27T02:07:29.794Z,0
2016-12-27T02:08:10.361Z,0
2016-12-27T02:08:50.932Z,0
2016-12-27T02:09:31.509Z,0
2016-12-27T02:10:12.078Z,0
2016-12-27T02:10:52.655Z,0
2016-12-27T02:11:33.233Z,0
2016-12-27T02:12:13.803Z,0
2016-12-27T02:12:54.373Z,0
2016-12-27T02:13:34.953Z,0
2016-12-27T02:14:15.526Z,0
2016-12-27T02:14:56.092Z,0
2016-12-27T02:15:36.671Z,0
2016-12-27T02:16:17.249Z,0
2016-12-27T02:16:57.815Z,0
2016-12-27T02:17:38.387Z,0
2016-12-27T02:18:18.958Z,0
2016-12-27T02:18:59.533Z,0
2016-12-27T02:19:40.100Z,0
2016-12-27T02:20:20.707Z,0
2016-12-27T02:21:01.283Z,0
2016-12-27T02:21:41.851Z,0
2016-12-27T02:22:22.435Z,0
2016-12-27T02:23:03.001Z,0
2016-12-27T02:23:43.582Z,0
2016-12-27T02:24:24.150Z,0
2016-12-27T02:25:04.747Z,0
2016-12-27T02:25:45.322Z,0
2016-12-27T02:26:25.892Z,0
2016-12-27T02:27:06.468Z,0
2016-12-27T02:27:47.052Z,0
2016-12-27T02:28:27.621Z,0
2016-12-27T02:29:08.192Z,0
2016-12-27T02:29:48.758Z,0
2016-12-27T02:30:29.335Z,0
2016-12-27T02:31:09.923Z,0
2016-12-27T02:31:50.496Z,0
2016-12-27T02:32:31.073Z,0
2016-12-27T02:33:11.646Z,0
2016-12-27T02:33:52.227Z,0
2016-12-27T02:34:32.790Z,0
2016-12-27T02:35:13.360Z,0
2016-12-27T02:35:53.937Z,0
2016-12-27T02:36:34.502Z,0
2016-12-27T02:37:15.080Z,0
2016-12-27T02:37:55.663Z,0
2016-12-27T02:38:36.238Z,0
2016-12-27T02:39:16.821Z,0
2016-12-27T02:39:57.399Z,0
2016-12-27T02:40:37.979Z,0
2016-12-27T02:41:18.552Z,0
2016-12-27T02:41:59.128Z,0
2016-12-27T02:42:39.698Z,0
2016-12-27T02:43:20.262Z,0
2016-12-27T02:44:00.827Z,0
2016-12-27T02:44:41.420Z,0
2016-12-27T02:45:21.993Z,0
2016-12-27T02:46:02.563Z,0
2016-12-27T02:46:43.129Z,0
2016-12-27T02:47:23.703Z,0
2016-12-27T02:48:04.281Z,0
2016-12-27T02:48:44.864Z,0
2016-12-27T02:49:25.433Z,0
2016-12-27T02:50:06.000Z,0
2016-12-27T02:50:46.578Z,0
2016-12-27T02:51:27.143Z,0
2016-12-27T02:52:07.723Z,0
2016-12-27T02:52:48.301Z,0
2016-12-27T02:53:28.883Z,0
2016-12-27T02:54:09.456Z,0
2016-12-27T02:54:50.031Z,0
2016-12-27T02:55:30.606Z,0
2016-12-27T02:56:11.171Z,0
2016-12-27T02:56:51.761Z,0
2016-12-27T02:57:32.313Z,0
2016-12-27T02:58:12.885Z,0
2016-12-27T02:58:53.456Z,0
2016-12-27T02:59:34.024Z,0
2016-12-27T03:00:14.598Z,0
2016-12-27T03:00:55.172Z,0
2016-12-27T03:01:35.748Z,0
2016-12-27T03:02:16.318Z,0
2016-12-27T03:02:56.896Z,0
2016-12-27T03:03:37.468Z,0
2016-12-27T03:04:18.039Z,0
2016-12-27T03:04:58.617Z,0
2016-12-27T03:05:39.194Z,0
2016-12-27T03:06:19.771Z,0
2016-12-27T03:07:00.343Z,0
2016-12-27T03:07:40.916Z,0
2016-12-27T03:08:21.499Z,0
2016-12-27T03:09:02.082Z,0
2016-12-27T03:09:42.659Z,0
2016-12-27T03:10:23.234Z,0
2016-12-27T03:11:03.806Z,0
2016-12-27T03:11:44.368Z,0
2016-12-27T03:12:24.944Z,0
2016-12-27T03:13:05.515Z,0
2016-12-27T03:13:46.087Z,0
2016-12-27T03:14:26.661Z,0
2016-12-27T03:15:07.234Z,0
2016-12-27T03:15:47.838Z,0
2016-12-27T03:16:28.426Z,0
2016-12-27T03:17:09.002Z,0
2016-12-27T03:17:49.568Z,0
2016-12-27T03:18:30.142Z,0
2016-12-27T03:19:10.721Z,0
2016-12-27T03:19:51.286Z,0
2016-12-27T03:20:31.868Z,0
2016-12-27T03:21:12.436Z,0
2016-12-27T03:21:53.016Z,0
2016-12-27T03:22:33.594Z,0
2016-12-27T03:23:14.171Z,0
2016-12-27T03:23:54.741Z,0
2016-12-27T03:24:35.325Z,0
2016-12-27T03:25:15.902Z,0
2016-12-27T03:25:56.490Z,0
2016-12-27T03:26:37.062Z,0
2016-12-27T03:27:17.640Z,0
2016-12-27T03:27:58.214Z,0
2016-12-27T03:28:38.782Z,0
2016-12-27T03:29:19.345Z,0
2016-12-27T03:29:59.933Z,0
2016-12-27T03:30:40.491Z,0
2016-12-27T03:31:21.066Z,0
2016-12-27T03:32:01.647Z,0
2016-12-27T03:32:42.215Z,0
2016-12-27T03:33:22.799Z,0
2016-12-27T03:34:03.384Z,0
2016-12-27T03:34:43.954Z,0
2016-12-27T03:35:24.532Z,0
2016-12-27T03:36:05.097Z,0
2016-12-27T03:36:45.663Z,0
2016-12-27T03:37:26.233Z,0
2016-12-27T03:38:06.814Z,0
2016-12-27T03:38:47.395Z,0
2016-12-27T03:39:27.971Z,0
2016-12-27T03:40:08.534Z,0
2016-12-27T03:40:49.099Z,0
2016-12-27T03:41:29.683Z,0
2016-12-27T03:42:10.270Z,0
2016-12-27T03:42:50.832Z,0
2016-12-27T03:43:31.407Z,0
2016-12-27T03:44:11.983Z,0
2016-12-27T03:44:52.564Z,0
2016-12-27T03:45:33.136Z,0
2016-12-27T03:46:13.699Z,0
2016-12-27T03:46:54.265Z,0
2016-12-27T03:47:34.835Z,0
2016-12-27T03:48:15.414Z,0
2016-12-27T03:48:55.989Z,0
2016-12-27T03:49:36.567Z,0
2016-12-27T03:50:17.134Z,0
2016-12-27T03:50:57.715Z,0
2016-12-27T03:51:38.293Z,0
2016-12-27T03:52:18.869Z,0
2016-12-27T03:52:59.444Z,0
2016-12-27T03:53:40.018Z,0
2016-12-27T03:54:20.595Z,0
2016-12-27T03:55:01.164Z,0
2016-12-27T03:55:41.738Z,0
2016-12-27T03:56:22.319Z,0
2016-12-27T03:57:02.892Z,0
2016-12-27T03:57:43.470Z,0
2016-12-27T03:58:24.036Z,0
2016-12-27T03:59:04.607Z,0
2016-12-27T03:59:45.166Z,0
2016-12-27T04:00:25.747Z,0
2016-12-27T04:01:06.323Z,0
2016-12-27T04:01:46.892Z,0
2016-12-27T04:02:27.463Z,0
2016-12-27T04:03:08.035Z,0
2016-12-27T04:03:48.614Z,0
2016-12-27T04:04:29.180Z,0
2016-12-27T04:05:09.788Z,0
2016-12-27T04:05:50.332Z,0
2016-12-27T04:06:30.914Z,0
2016-12-27T04:07:11.520Z,0
2016-12-27T04:07:52.088Z,0
2016-12-27T04:08:32.657Z,0
2016-12-27T04:09:13.235Z,0
2016-12-27T04:09:53.802Z,0
2016-12-27T04:10:34.371Z,0
2016-12-27T04:11:14.949Z,0
2016-12-27T04:11:55.531Z,0
2016-12-27T04:12:36.104Z,0
2016-12-27T04:13:16.676Z,0
2016-12-27T04:13:57.251Z,0
2016-12-27T04:14:37.830Z,0
2016-12-27T04:15:18.391Z,0
2016-12-27T04:15:58.969Z,0
2016-12-27T04:16:39.554Z,0
2016-12-27T04:17:20.120Z,0
2016-12-27T04:18:00.701Z,0
2016-12-27T04:18:41.269Z,0
2016-12-27T04:19:21.840Z,0
2016-12-27T04:20:02.423Z,0
2016-12-27T04:20:42.999Z,0
2016-12-27T04:21:23.572Z,0
2016-12-27T04:22:04.160Z,0
2016-12-27T04:22:44.732Z,0
2016-12-27T04:23:25.286Z,0
2016-12-27T04:24:05.853Z,0
2016-12-27T04:24:46.423Z,0
2016-12-27T04:25:26.994Z,0
2016-12-27T04:26:07.570Z,0
2016-12-27T04:26:48.151Z,0
2016-12-27T04:27:28.706Z,0
2016-12-27T04:28:09.303Z,0
2016-12-27T04:28:49.865Z,0
2016-12-27T04:29:30.453Z,0
2016-12-27T04:30:11.032Z,0
2016-12-27T04:30:51.607Z,0
2016-12-27T04:31:32.169Z,0
2016-12-27T04:32:12.747Z,0
2016-12-27T04:32:53.318Z,0
2016-12-27T04:33:33.886Z,0
2016-12-27T04:34:14.458Z,0
2016-12-27T04:34:55.011Z,0
2016-12-27T04:35:35.591Z,0
2016-12-27T04:36:16.171Z,0
2016-12-27T04:36:56.752Z,0
2016-12-27T04:37:37.329Z,0
2016-12-27T04:38:17.902Z,0
2016-12-27T04:38:58.468Z,0
2016-12-27T04:39:39.043Z,0
2016-12-27T04:40:19.625Z,0
2016-12-27T04:41:00.194Z,0
2016-12-27T04:41:40.775Z,0
2016-12-27T04:42:21.360Z,0
2016-12-27T04:43:01.944Z,0
2016-12-27T04:43:42.513Z,0
2016-12-27T04:44:23.098Z,0
2016-12-27T04:45:03.681Z,0
2016-12-27T04:45:44.249Z,0
2016-12-27T04:46:24.836Z,0
2016-12-27T04:47:05.409Z,0
2016-12-27T04:47:45.969Z,0
2016-12-27T04:48:26.556Z,0
2016-12-27T04:49:07.136Z,0
2016-12-27T04:49:47.713Z,0
2016-12-27T04:50:28.285Z,0
2016-12-27T04:51:08.856Z,0
2016-12-27T04:51:49.425Z,0
2016-12-27T04:52:30.016Z,0
2016-12-27T04:53:10.589Z,0
2016-12-27T04:53:51.162Z,0
2016-12-27T04:54:31.744Z,0
2016-12-27T04:55:12.320Z,0
2016-12-27T04:55:52.874Z,0
2016-12-27T04:56:33.452Z,0
2016-12-27T04:57:14.038Z,0
2016-12-27T04:57:54.607Z,0
2016-12-27T04:58:35.179Z,0
2016-12-27T04:59:15.750Z,0
2016-12-27T04:59:56.327Z,0
2016-12-27T05:00:36.907Z,0
2016-12-27T05:01:17.484Z,0
2016-12-27T05:01:58.063Z,0
2016-12-27T05:02:38.638Z,0
2016-12-27T05:03:19.211Z,0
2016-12-27T05:03:59.786Z,0
2016-12-27T05:04:40.361Z,0
2016-12-27T05:05:20.941Z,0
2016-12-27T05:06:01.521Z,0
2016-12-27T05:06:42.093Z,0
2016-12-27T05:07:22.666Z,0
2016-12-27T05:08:03.245Z,0
2016-12-27T05:08:43.823Z,0
2016-12-27T05:09:24.408Z,0
2016-12-27T05:10:04.984Z,0
2016-12-27T05:10:45.563Z,0
2016-12-27T05:11:26.140Z,0
2016-12-27T05:12:06.714Z,0
2016-12-27T05:12:47.285Z,0
2016-12-27T05:13:27.865Z,0
2016-12-27T05:14:08.433Z,0
2016-12-27T05:14:49.016Z,0
2016-12-27T05:15:29.577Z,0
2016-12-27T05:16:10.157Z,0
2016-12-27T05:16:50.727Z,0
2016-12-27T05:17:31.305Z,0
2016-12-27T05:18:11.881Z,0
2016-12-27T05:18:52.457Z,0
2016-12-27T05:19:33.034Z,0
2016-12-27T05:20:13.607Z,0
2016-12-27T05:20:54.165Z,0
2016-12-27T05:21:34.745Z,0
2016-12-27T05:22:15.319Z,0
2016-12-27T05:22:55.898Z,0
2016-12-27T05:23:36.468Z,0
2016-12-27T05:24:17.044Z,0
2016-12-27T05:24:57.624Z,0
2016-12-27T05:25:38.198Z,0
2016-12-27T05:26:18.779Z,0
2016-12-27T05:26:59.356Z,0
2016-12-27T05:27:39.935Z,0
2016-12-27T05:28:20.499Z,0
2016-12-27T05:29:01.074Z,0
2016-12-27T05:29:41.647Z,0
2016-12-27T05:30:22.219Z,0
2016-12-27T05:31:02.792Z,0
2016-12-27T05:31:43.364Z,0
2016-12-27T05:32:23.944Z,0
2016-12-27T05:33:04.519Z,0
2016-12-27T05:33:45.092Z,0
2016-12-27T05:34:25.662Z,0
2016-12-27T05:35:06.248Z,0
2016-12-27T05:35:46.813Z,0
2016-12-27T05:36:27.395Z,0
2016-12-27T05:37:07.974Z,0
2016-12-27T05:37:48.572Z,0
2016-12-27T05:38:29.157Z,0
2016-12-27T05:39:09.731Z,0
2016-12-27T05:39:50.294Z,0
2016-12-27T05:40:30.873Z,0
2016-12-27T05:41:11.447Z,0
2016-12-27T05:41:52.033Z,0
2016-12-27T05:42:32.608Z,0
2016-12-27T05:43:13.182Z,0
2016-12-27T05:43:53.748Z,0
2016-12-27T05:44:34.325Z,0
2016-12-27T05:45:14.901Z,0
2016-12-27T05:45:55.475Z,0
2016-12-27T05:46:36.051Z,0
2016-12-27T05:47:16.624Z,0
2016-12-27T05:47:57.196Z,0
2016-12-27T05:48:37.767Z,0
2016-12-27T05:49:18.335Z,0
2016-12-27T05:49:58.908Z,0
2016-12-27T05:50:39.485Z,0
2016-12-27T05:51:20.060Z,0
2016-12-27T05:52:00.623Z,0
2016-12-27T05:52:41.197Z,0
2016-12-27T05:53:21.775Z,0
2016-12-27T05:54:02.352Z,0
2016-12-27T05:54:42.921Z,0
2016-12-27T05:55:23.500Z,0
2016-12-27T05:56:04.065Z,0
2016-12-27T05:56:44.655Z,0
2016-12-27T05:57:25.231Z,0
2016-12-27T05:58:05.805Z,0
2016-12-27T05:58:46.387Z,0
2016-12-27T05:59:26.961Z,0
2016-12-27T06:00:07.524Z,0
2016-12-27T06:00:48.097Z,0
2016-12-27T06:01:28.670Z,0
2016-12-27T06:02:09.245Z,0
2016-12-27T06:02:49.819Z,0
2016-12-27T06:03:30.414Z,0
2016-12-27T06:04:10.985Z,0
2016-12-27T06:04:51.556Z,0
2016-12-27T06:05:32.135Z,0
2016-12-27T06:06:12.709Z,0
2016-12-27T06:06:53.290Z,0
2016-12-27T06:07:33.867Z,0
2016-12-27T06:08:14.445Z,0
2016-12-27T06:08:55.015Z,0
2016-12-27T06:09:35.592Z,0
2016-12-27T06:10:16.177Z,0
2016-12-27T06:10:56.746Z,0
2016-12-27T06:11:37.311Z,0
2016-12-27T06:12:17.879Z,0
2016-12-27T06:12:58.461Z,0
2016-12-27T06:13:39.027Z,0
2016-12-27T06:14:19.594Z,0
2016-12-27T06:15:00.175Z,0
2016-12-27T06:15:40.761Z,0
2016-12-27T06:16:21.335Z,0
2016-12-27T06:17:01.911Z,0
2016-12-27T06:17:42.476Z,0
2016-12-27T06:18:23.057Z,0
2016-12-27T06:19:03.632Z,0
2016-12-27T06:19:44.213Z,0
2016-12-27T06:20:24.768Z,0
2016-12-27T06:21:05.352Z,0
2016-12-27T06:21:45.934Z,0
2016-12-27T06:22:26.512Z,0
2016-12-27T06:23:07.084Z,0
2016-12-27T06:23:47.658Z,0
2016-12-27T06:24:28.239Z,0
2016-12-27T06:25:08.807Z,0
2016-12-27T06:25:49.386Z,0
2016-12-27T06:26:29.960Z,0
2016-12-27T06:27:10.524Z,0
2016-12-27T06:27:51.103Z,0
2016-12-27T06:28:31.702Z,0
2016-12-27T06:29:12.280Z,0
2016-12-27T06:29:52.870Z,0
2016-12-27T06:30:33.431Z,0
2016-12-27T06:31:14.001Z,0
2016-12-27T06:31:54.572Z,0
2016-12-27T06:32:35.150Z,0
2016-12-27T06:33:15.727Z,0
2016-12-27T06:33:56.288Z,0
2016-12-27T06:34:36.856Z,0
2016-12-27T06:35:17.479Z,0
2016-12-27T06:35:58.055Z,0
2016-12-27T06:36:38.618Z,0
2016-12-27T06:37:19.199Z,0
2016-12-27T06:37:59.773Z,0
2016-12-27T06:38:40.351Z,0
2016-12-27T06:39:20.935Z,0
2016-12-27T06:40:01.502Z,0
2016-12-27T06:40:42.075Z,0
2016-12-27T06:41:22.651Z,0
2016-12-27T06:42:03.216Z,0
2016-12-27T06:42:43.791Z,0
2016-12-27T06:43:24.378Z,0
2016-12-27T06:44:04.955Z,0
2016-12-27T06:44:45.525Z,0
2016-12-27T06:45:26.101Z,0
2016-12-27T06:46:06.672Z,0
2016-12-27T06:46:47.254Z,0
2016-12-27T06:47:27.833Z,0
2016-12-27T06:48:08.414Z,0
2016-12-27T06:48:48.979Z,0
2016-12-27T06:49:29.561Z,0
2016-12-27T06:50:10.128Z,0
2016-12-27T06:50:50.712Z,0
2016-12-27T06:51:31.277Z,0
2016-12-27T06:52:11.850Z,0
2016-12-27T06:52:52.421Z,0
2016-12-27T06:53:32.989Z,0
2016-12-27T06:54:13.564Z,0
2016-12-27T06:54:54.149Z,0
2016-12-27T06:55:34.720Z,0
2016-12-27T06:56:15.281Z,0
2016-12-27T06:56:55.860Z,0
2016-12-27T06:57:36.436Z,0
2016-12-27T06:58:17.018Z,0
2016-12-27T06:58:57.591Z,0
2016-12-27T06:59:38.168Z,0
2016-12-27T07:00:18.737Z,0
2016-12-27T07:00:59.321Z,0
2016-12-27T07:01:39.898Z,0
2016-12-27T07:02:20.476Z,0
2016-12-27T07:03:01.048Z,0
2016-12-27T07:03:41.624Z,0
2016-12-27T07:04:22.202Z,0
2016-12-27T07:05:02.778Z,0
2016-12-27T07:05:43.349Z,0
2016-12-27T07:06:23.937Z,0
2016-12-27T07:07:04.513Z,0
2016-12-27T07:07:45.078Z,0
2016-12-27T07:08:25.651Z,0
2016-12-27T07:09:06.218Z,0
2016-12-27T07:09:46.790Z,0
2016-12-27T07:10:27.365Z,0
2016-12-27T07:11:07.931Z,0
2016-12-27T07:11:48.518Z,0
2016-12-27T07:12:29.094Z,0
2016-12-27T07:13:09.665Z,0
2016-12-27T07:13:50.249Z,0
2016-12-27T07:14:30.827Z,0
2016-12-27T07:15:11.398Z,0
2016-12-27T07:15:51.971Z,0
2016-12-27T07:16:32.537Z,0
2016-12-27T07:17:13.111Z,0
2016-12-27T07:17:53.696Z,0
2016-12-27T07:18:34.254Z,0
2016-12-27T07:19:14.826Z,0
2016-12-27T07:19:55.401Z,0
2016-12-27T07:20:35.984Z,0
2016-12-27T07:21:16.555Z,0
2016-12-27T07:21:57.120Z,0
2016-12-27T07:22:37.681Z,0
2016-12-27T07:23:18.265Z,0
2016-12-27T07:23:58.843Z,0
2016-12-27T07:24:39.406Z,0
2016-12-27T07:25:19.971Z,0
2016-12-27T07:26:00.532Z,0
2016-12-27T07:26:41.116Z,0
2016-12-27T07:27:21.713Z,0
2016-12-27T07:28:02.288Z,0
2016-12-27T07:28:42.864Z,0
2016-12-27T07:29:23.418Z,0
2016-12-27T07:30:03.994Z,0
2016-12-27T07:30:44.570Z,0
2016-12-27T07:31:25.142Z,0
2016-12-27T07:32:05.712Z,0
2016-12-27T07:32:46.284Z,0
2016-12-27T07:33:26.866Z,0
2016-12-27T07:34:07.443Z,5
2016-12-27T07:34:48.020Z,5
2016-12-27T07:35:28.599Z,5
2016-12-27T07:36:09.180Z,5
2016-12-27T07:36:49.748Z,5
2016-12-27T07:37:30.322Z,5
2016-12-27T07:38:10.897Z,5
2016-12-27T07:38:51.475Z,5
2016-12-27T07:39:32.047Z,5
2016-12-27T07:40:12.606Z,5
2016-12-27T07:40:53.192Z,5
2016-12-27T07:41:33.774Z,5
2016-12-27T07:42:14.332Z,5
2016-12-27T07:42:54.902Z,5
2016-12-27T07:43:35.483Z,5
2016-12-27T07:44:16.057Z,5
2016-12-27T07:44:56.632Z,10
2016-12-27T07:45:37.205Z,10
2016-12-27T07:46:17.775Z,10
2016-12-27T07:46:58.353Z,10
2016-12-27T07:47:38.930Z,10
2016-12-27T07:48:19.499Z,10
2016-12-27T07:49:00.070Z,10
2016-12-27T07:49:40.649Z,10
2016-12-27T07:50:21.238Z,10
2016-12-27T07:51:01.815Z,10
2016-12-27T07:51:42.377Z,10
2016-12-27T07:52:22.955Z,10
2016-12-27T07:53:03.542Z,10
2016-12-27T07:53:44.122Z,15
2016-12-27T07:54:24.693Z,15
2016-12-27T07:55:05.263Z,15
2016-12-27T07:55:45.847Z,15
2016-12-27T07:56:26.417Z,15
2016-12-27T07:57:06.972Z,15
2016-12-27T07:57:47.551Z,15
2016-12-27T07:58:28.134Z,15
2016-12-27T07:59:08.701Z,15
2016-12-27T07:59:49.275Z,15
2016-12-27T08:00:29.833Z,20
2016-12-27T08:01:10.411Z,20
2016-12-27T08:01:50.977Z,20
2016-12-27T08:02:31.555Z,20
2016-12-27T08:03:12.128Z,20
2016-12-27T08:03:52.682Z,20
2016-12-27T08:04:33.257Z,20
2016-12-27T08:05:13.848Z,20
2016-12-27T08:05:54.419Z,20
2016-12-27T08:06:34.994Z,20
2016-12-27T08:07:15.557Z,20
2016-12-27T08:07:56.126Z,20
2016-12-27T08:08:36.706Z,20
2016-12-27T08:09:17.275Z,20
2016-12-27T08:09:57.843Z,25
2016-12-27T08:10:38.402Z,25
2016-12-27T08:11:18.980Z,25
2016-12-27T08:11:59.551Z,25
2016-12-27T08:12:40.116Z,25
2016-12-27T08:13:20.694Z,25
2016-12-27T08:14:01.241Z,25
2016-12-27T08:14:41.818Z,25
2016-12-27T08:15:22.386Z,25
2016-12-27T08:16:02.964Z,25
2016-12-27T08:16:43.544Z,30
2016-12-27T08:17:24.119Z,30
2016-12-27T08:18:04.694Z,30
2016-12-27T08:18:45.269Z,30
2016-12-27T08:19:25.843Z,30
2016-12-27T08:20:06.421Z,35
2016-12-27T08:20:47.008Z,35
2016-12-27T08:21:27.602Z,30
2016-12-27T08:22:08.159Z,30
2016-12-27T08:22:48.733Z,30
2016-12-27T08:23:29.306Z,30
2016-12-27T08:24:09.875Z,30
2016-12-27T08:24:50.449Z,30
2016-12-27T08:25:31.033Z,30
2016-12-27T08:26:11.605Z,35
2016-12-27T08:26:52.218Z,35
2016-12-27T08:27:32.763Z,35
2016-12-27T08:28:13.333Z,35
2016-12-27T08:28:53.907Z,40
2016-12-27T08:29:34.480Z,35
2016-12-27T08:30:15.067Z,35
2016-12-27T08:30:55.638Z,35
2016-12-27T08:31:36.207Z,40
2016-12-27T08:32:16.791Z,40
2016-12-27T08:32:57.341Z,45
2016-12-27T08:33:37.925Z,45
2016-12-27T08:34:18.496Z,45
2016-12-27T08:34:59.071Z,45
2016-12-27T08:35:39.650Z,50
2016-12-27T08:36:20.212Z,50
2016-12-27T08:37:00.763Z,50
2016-12-27T08:37:41.336Z,50
2016-12-27T08:38:21.913Z,50
2016-12-27T08:39:02.494Z,50
2016-12-27T08:39:43.058Z,50
2016-12-27T08:40:23.635Z,50
2016-12-27T08:41:04.216Z,50
2016-12-27T08:41:44.805Z,55
2016-12-27T08:42:25.374Z,55
2016-12-27T08:43:05.946Z,55
2016-12-27T08:43:46.544Z,55
2016-12-27T08:44:27.123Z,55
2016-12-27T08:45:07.681Z,55
2016-12-27T08:45:48.257Z,60
2016-12-27T08:46:28.836Z,60
2016-12-27T08:47:09.420Z,60
2016-12-27T08:47:49.996Z,60
2016-12-27T08:48:30.567Z,60
2016-12-27T08:49:11.140Z,65
2016-12-27T08:49:51.721Z,65
2016-12-27T08:50:32.333Z,65
2016-12-27T08:51:12.910Z,65
2016-12-27T08:51:53.476Z,65
2016-12-27T08:52:34.048Z,65
2016-12-27T08:53:14.606Z,65
2016-12-27T08:53:55.164Z,65
2016-12-27T08:54:35.757Z,65
2016-12-27T08:55:16.342Z,65
2016-12-27T08:55:56.915Z,65
2016-12-27T08:56:37.495Z,65
2016-12-27T08:57:18.084Z,65
2016-12-27T08:57:58.655Z,65
2016-12-27T08:58:39.214Z,70
2016-12-27T08:59:19.784Z,80
2016-12-27T09:00:00.358Z,85
2016-12-27T09:00:40.938Z,90
2016-12-27T09:01:21.514Z,90
2016-12-27T09:02:02.112Z,90
2016-12-27T09:02:42.690Z,90
2016-12-27T09:03:23.268Z,95
2016-12-27T09:04:03.842Z,95
2016-12-27T09:04:44.432Z,90
2016-12-27T09:05:25.005Z,95
2016-12-27T09:06:05.573Z,95
2016-12-27T09:06:46.146Z,95
2016-12-27T09:07:26.724Z,100
2016-12-27T09:08:07.304Z,105
2016-12-27T09:08:47.870Z,110
2016-12-27T09:09:28.447Z,110
2016-12-27T09:10:09.031Z,110
2016-12-27T09:10:49.611Z,110
2016-12-27T09:11:30.181Z,110
2016-12-27T09:12:10.756Z,105
2016-12-27T09:12:51.325Z,100
2016-12-27T09:13:31.901Z,95
2016-12-27T09:14:12.472Z,100
2016-12-27T09:14:53.049Z,110
2016-12-27T09:15:33.629Z,120
2016-12-27T09:16:14.215Z,120
2016-12-27T09:16:54.787Z,120
2016-12-27T09:17:35.364Z,110
2016-12-27T09:18:15.939Z,115
2016-12-27T09:18:56.513Z,110
2016-12-27T09:19:37.080Z,110
2016-12-27T09:20:17.653Z,115
2016-12-27T09:20:58.226Z,105
2016-12-27T09:21:38.821Z,105
2016-12-27T09:22:19.396Z,110
2016-12-27T09:22:59.956Z,120
2016-12-27T09:23:40.538Z,125
2016-12-27T09:24:21.113Z,125
2016-12-27T09:25:01.686Z,115
2016-12-27T09:25:42.283Z,115
2016-12-27T09:26:22.849Z,120
2016-12-27T09:27:03.423Z,125
2016-12-27T09:27:44.005Z,130
2016-12-27T09:28:24.583Z,125
2016-12-27T09:29:05.167Z,125
2016-12-27T09:29:45.743Z,130
2016-12-27T09:30:26.327Z,135
2016-12-27T09:31:06.897Z,145
2016-12-27T09:31:47.469Z,135
2016-12-27T09:32:28.054Z,120
2016-12-27T09:33:08.627Z,115
2016-12-27T09:33:49.201Z,115
2016-12-27T09:34:29.782Z,115
2016-12-27T09:35:10.359Z,110
2016-12-27T09:35:50.937Z,110
2016-12-27T09:36:31.516Z,110
2016-12-27T09:37:12.093Z,110
2016-12-27T09:37:52.670Z,110
2016-12-27T09:38:33.254Z,110
2016-12-27T09:39:13.826Z,110
2016-12-27T09:39:54.406Z,115
2016-12-27T09:40:34.982Z,120
2016-12-27T09:41:15.567Z,125
2016-12-27T09:41:56.150Z,130
2016-12-27T09:42:36.736Z,125
2016-12-27T09:43:17.318Z,120
2016-12-27T09:43:57.915Z,115
2016-12-27T09:44:38.489Z,115
2016-12-27T09:45:19.070Z,115
2016-12-27T09:45:59.649Z,115
2016-12-27T09:46:40.233Z,120
2016-12-27T09:47:20.805Z,120
2016-12-27T09:48:01.389Z,120
2016-12-27T09:48:41.986Z,115
2016-12-27T09:49:22.550Z,120
2016-12-27T09:50:03.127Z,125
2016-12-27T09:50:43.698Z,130
2016-12-27T09:51:24.269Z,125
2016-12-27T09:52:05.137Z,125
2016-12-27T09:52:45.715Z,130
2016-12-27T09:53:26.296Z,135